sensor_id;sensor_type;location;lat;lon;timestamp;P1;durP1;ratioP1;P2;durP2;ratioP2
67514;SDS011;60646;55.802;37.032;2024-01-27T00:00:18;22.05;;;8.05;;
67514;SDS011;60646;55.802;37.032;2024-01-27T00:02:44;22.83;;;7.63;;
67514;SDS011;60646;55.802;37.032;2024-01-27T00:05:10;14.30;;;6.90;;
67514;SDS011;60646;55.802;37.032;2024-01-27T00:07:36;17.92;;;6.95;;
67514;SDS011;60646;55.802;37.032;2024-01-27T00:10:02;14.45;;;6.15;;
67514;SDS011;60646;55.802;37.032;2024-01-27T00:12:31;17.02;;;6.55;;
67514;SDS011;60646;55.802;37.032;2024-01-27T00:14:56;17.80;;;6.65;;
67514;SDS011;60646;55.802;37.032;2024-01-27T00:17:22;19.13;;;6.80;;
67514;SDS011;60646;55.802;37.032;2024-01-27T00:19:53;17.40;;;6.75;;
67514;SDS011;60646;55.802;37.032;2024-01-27T00:22:20;14.30;;;6.40;;
67514;SDS011;60646;55.802;37.032;2024-01-27T00:24:48;15.43;;;6.65;;
67514;SDS011;60646;55.802;37.032;2024-01-27T00:27:14;13.23;;;6.13;;
67514;SDS011;60646;55.802;37.032;2024-01-27T00:29:40;27.40;;;9.88;;
67514;SDS011;60646;55.802;37.032;2024-01-27T00:32:06;24.08;;;9.10;;
67514;SDS011;60646;55.802;37.032;2024-01-27T00:34:32;21.08;;;7.47;;
67514;SDS011;60646;55.802;37.032;2024-01-27T00:36:58;17.77;;;6.50;;
67514;SDS011;60646;55.802;37.032;2024-01-27T00:39:24;16.10;;;5.85;;
67514;SDS011;60646;55.802;37.032;2024-01-27T00:41:51;16.27;;;6.22;;
67514;SDS011;60646;55.802;37.032;2024-01-27T00:44:18;16.27;;;6.00;;
67514;SDS011;60646;55.802;37.032;2024-01-27T00:46:44;19.42;;;9.00;;
67514;SDS011;60646;55.802;37.032;2024-01-27T00:49:09;29.20;;;10.88;;
67514;SDS011;60646;55.802;37.032;2024-01-27T00:51:35;25.50;;;8.95;;
67514;SDS011;60646;55.802;37.032;2024-01-27T00:54:01;19.63;;;7.63;;
67514;SDS011;60646;55.802;37.032;2024-01-27T00:56:27;15.95;;;6.80;;
67514;SDS011;60646;55.802;37.032;2024-01-27T00:58:53;16.10;;;6.63;;
67514;SDS011;60646;55.802;37.032;2024-01-27T01:01:19;15.00;;;6.57;;
67514;SDS011;60646;55.802;37.032;2024-01-27T01:03:45;15.77;;;6.60;;
67514;SDS011;60646;55.802;37.032;2024-01-27T01:06:11;14.63;;;5.93;;
67514;SDS011;60646;55.802;37.032;2024-01-27T01:08:37;16.42;;;5.57;;
67514;SDS011;60646;55.802;37.032;2024-01-27T01:11:02;13.95;;;6.15;;
67514;SDS011;60646;55.802;37.032;2024-01-27T01:13:28;13.40;;;5.72;;
67514;SDS011;60646;55.802;37.032;2024-01-27T01:15:54;14.80;;;6.57;;
67514;SDS011;60646;55.802;37.032;2024-01-27T01:18:20;21.25;;;7.07;;
67514;SDS011;60646;55.802;37.032;2024-01-27T01:20:46;14.60;;;6.63;;
67514;SDS011;60646;55.802;37.032;2024-01-27T01:23:12;18.17;;;6.90;;
67514;SDS011;60646;55.802;37.032;2024-01-27T01:25:37;14.80;;;6.30;;
67514;SDS011;60646;55.802;37.032;2024-01-27T01:28:03;12.98;;;5.57;;
67514;SDS011;60646;55.802;37.032;2024-01-27T01:30:30;15.75;;;7.18;;
67514;SDS011;60646;55.802;37.032;2024-01-27T01:32:55;19.42;;;7.63;;
67514;SDS011;60646;55.802;37.032;2024-01-27T01:35:21;18.70;;;7.28;;
67514;SDS011;60646;55.802;37.032;2024-01-27T01:37:47;12.25;;;5.20;;
67514;SDS011;60646;55.802;37.032;2024-01-27T01:40:14;16.05;;;6.00;;
67514;SDS011;60646;55.802;37.032;2024-01-27T01:42:41;14.70;;;6.72;;
67514;SDS011;60646;55.802;37.032;2024-01-27T01:45:07;18.90;;;6.43;;
67514;SDS011;60646;55.802;37.032;2024-01-27T01:47:36;15.63;;;6.95;;
67514;SDS011;60646;55.802;37.032;2024-01-27T01:50:02;15.80;;;7.60;;
67514;SDS011;60646;55.802;37.032;2024-01-27T01:52:29;12.18;;;5.70;;
67514;SDS011;60646;55.802;37.032;2024-01-27T01:54:55;14.10;;;6.03;;
67514;SDS011;60646;55.802;37.032;2024-01-27T01:57:21;14.10;;;6.15;;
67514;SDS011;60646;55.802;37.032;2024-01-27T01:59:47;10.60;;;5.45;;
67514;SDS011;60646;55.802;37.032;2024-01-27T02:02:13;15.30;;;6.55;;
67514;SDS011;60646;55.802;37.032;2024-01-27T02:04:42;13.02;;;5.40;;
67514;SDS011;60646;55.802;37.032;2024-01-27T02:07:08;10.00;;;4.90;;
67514;SDS011;60646;55.802;37.032;2024-01-27T02:09:35;10.20;;;5.10;;
67514;SDS011;60646;55.802;37.032;2024-01-27T02:12:01;14.30;;;5.97;;
67514;SDS011;60646;55.802;37.032;2024-01-27T02:14:27;11.35;;;4.90;;
67514;SDS011;60646;55.802;37.032;2024-01-27T02:16:53;10.05;;;5.15;;
67514;SDS011;60646;55.802;37.032;2024-01-27T02:19:20;12.40;;;5.15;;
67514;SDS011;60646;55.802;37.032;2024-01-27T02:21:46;12.57;;;4.93;;
67514;SDS011;60646;55.802;37.032;2024-01-27T02:24:11;13.93;;;5.50;;
67514;SDS011;60646;55.802;37.032;2024-01-27T02:26:37;10.45;;;4.93;;
67514;SDS011;60646;55.802;37.032;2024-01-27T02:29:03;13.20;;;4.82;;
67514;SDS011;60646;55.802;37.032;2024-01-27T02:31:29;11.93;;;5.30;;
67514;SDS011;60646;55.802;37.032;2024-01-27T02:33:55;12.75;;;5.47;;
67514;SDS011;60646;55.802;37.032;2024-01-27T02:36:21;13.70;;;4.97;;
67514;SDS011;60646;55.802;37.032;2024-01-27T02:38:47;14.40;;;5.38;;
67514;SDS011;60646;55.802;37.032;2024-01-27T02:41:12;12.02;;;5.57;;
67514;SDS011;60646;55.802;37.032;2024-01-27T02:43:40;15.98;;;6.32;;
67514;SDS011;60646;55.802;37.032;2024-01-27T02:46:10;19.98;;;6.95;;
67514;SDS011;60646;55.802;37.032;2024-01-27T02:48:43;17.80;;;7.22;;
67514;SDS011;60646;55.802;37.032;2024-01-27T02:53:35;11.73;;;5.22;;
67514;SDS011;60646;55.802;37.032;2024-01-27T02:56:01;16.55;;;5.90;;
67514;SDS011;60646;55.802;37.032;2024-01-27T02:58:27;13.82;;;5.95;;
67514;SDS011;60646;55.802;37.032;2024-01-27T03:00:53;13.23;;;6.47;;
67514;SDS011;60646;55.802;37.032;2024-01-27T03:03:19;12.82;;;5.25;;
67514;SDS011;60646;55.802;37.032;2024-01-27T03:05:45;13.13;;;5.53;;
67514;SDS011;60646;55.802;37.032;2024-01-27T03:08:11;11.85;;;5.28;;
67514;SDS011;60646;55.802;37.032;2024-01-27T03:10:37;13.88;;;5.95;;
67514;SDS011;60646;55.802;37.032;2024-01-27T03:13:03;19.85;;;7.88;;
67514;SDS011;60646;55.802;37.032;2024-01-27T03:15:29;22.05;;;7.72;;
67514;SDS011;60646;55.802;37.032;2024-01-27T03:17:55;19.13;;;7.82;;
67514;SDS011;60646;55.802;37.032;2024-01-27T03:20:21;16.80;;;7.22;;
67514;SDS011;60646;55.802;37.032;2024-01-27T03:22:47;14.10;;;6.95;;
67514;SDS011;60646;55.802;37.032;2024-01-27T03:25:13;16.88;;;7.10;;
67514;SDS011;60646;55.802;37.032;2024-01-27T03:27:39;18.40;;;8.00;;
67514;SDS011;60646;55.802;37.032;2024-01-27T03:30:05;14.30;;;6.80;;
67514;SDS011;60646;55.802;37.032;2024-01-27T03:32:32;15.35;;;6.85;;
67514;SDS011;60646;55.802;37.032;2024-01-27T03:34:59;16.83;;;6.13;;
67514;SDS011;60646;55.802;37.032;2024-01-27T03:37:26;12.43;;;5.22;;
67514;SDS011;60646;55.802;37.032;2024-01-27T03:39:52;10.93;;;5.03;;
67514;SDS011;60646;55.802;37.032;2024-01-27T03:42:18;11.85;;;5.53;;
67514;SDS011;60646;55.802;37.032;2024-01-27T03:44:44;13.45;;;5.82;;
67514;SDS011;60646;55.802;37.032;2024-01-27T03:47:10;12.27;;;5.30;;
67514;SDS011;60646;55.802;37.032;2024-01-27T03:49:36;11.90;;;5.03;;
67514;SDS011;60646;55.802;37.032;2024-01-27T03:52:02;15.80;;;5.20;;
67514;SDS011;60646;55.802;37.032;2024-01-27T03:54:30;12.07;;;5.80;;
67514;SDS011;60646;55.802;37.032;2024-01-27T03:56:55;12.68;;;5.15;;
67514;SDS011;60646;55.802;37.032;2024-01-27T03:59:21;10.48;;;4.75;;
67514;SDS011;60646;55.802;37.032;2024-01-27T04:01:47;10.88;;;5.10;;
67514;SDS011;60646;55.802;37.032;2024-01-27T04:04:13;10.38;;;5.35;;
67514;SDS011;60646;55.802;37.032;2024-01-27T04:06:40;11.98;;;5.47;;
67514;SDS011;60646;55.802;37.032;2024-01-27T04:09:06;14.98;;;5.93;;
67514;SDS011;60646;55.802;37.032;2024-01-27T04:11:35;11.30;;;5.63;;
67514;SDS011;60646;55.802;37.032;2024-01-27T04:14:02;11.98;;;5.38;;
67514;SDS011;60646;55.802;37.032;2024-01-27T04:16:47;12.52;;;5.60;;
67514;SDS011;60646;55.802;37.032;2024-01-27T04:19:13;10.27;;;4.90;;
67514;SDS011;60646;55.802;37.032;2024-01-27T04:21:39;10.98;;;5.05;;
67514;SDS011;60646;55.802;37.032;2024-01-27T04:24:06;13.45;;;5.32;;
67514;SDS011;60646;55.802;37.032;2024-01-27T04:26:32;12.68;;;5.78;;
67514;SDS011;60646;55.802;37.032;2024-01-27T04:28:58;12.75;;;5.05;;
67514;SDS011;60646;55.802;37.032;2024-01-27T04:31:24;12.45;;;5.85;;
67514;SDS011;60646;55.802;37.032;2024-01-27T04:33:50;10.55;;;5.00;;
67514;SDS011;60646;55.802;37.032;2024-01-27T04:36:24;16.65;;;5.68;;
67514;SDS011;60646;55.802;37.032;2024-01-27T04:38:54;9.55;;;4.82;;
67514;SDS011;60646;55.802;37.032;2024-01-27T04:41:21;10.55;;;5.20;;
67514;SDS011;60646;55.802;37.032;2024-01-27T04:43:47;11.38;;;5.40;;
67514;SDS011;60646;55.802;37.032;2024-01-27T04:46:13;12.35;;;5.45;;
67514;SDS011;60646;55.802;37.032;2024-01-27T04:48:39;9.30;;;4.88;;
67514;SDS011;60646;55.802;37.032;2024-01-27T04:51:05;12.10;;;5.38;;
67514;SDS011;60646;55.802;37.032;2024-01-27T04:53:31;11.85;;;5.40;;
67514;SDS011;60646;55.802;37.032;2024-01-27T04:55:57;15.40;;;5.47;;
67514;SDS011;60646;55.802;37.032;2024-01-27T04:58:22;10.35;;;5.50;;
67514;SDS011;60646;55.802;37.032;2024-01-27T05:00:48;11.20;;;5.18;;
67514;SDS011;60646;55.802;37.032;2024-01-27T05:03:14;11.18;;;4.43;;
67514;SDS011;60646;55.802;37.032;2024-01-27T05:05:40;10.68;;;4.93;;
67514;SDS011;60646;55.802;37.032;2024-01-27T05:08:07;11.95;;;5.10;;
67514;SDS011;60646;55.802;37.032;2024-01-27T05:10:32;13.10;;;5.50;;
67514;SDS011;60646;55.802;37.032;2024-01-27T05:12:58;15.85;;;6.78;;
67514;SDS011;60646;55.802;37.032;2024-01-27T05:15:24;20.10;;;7.75;;
67514;SDS011;60646;55.802;37.032;2024-01-27T05:17:50;17.75;;;7.13;;
67514;SDS011;60646;55.802;37.032;2024-01-27T05:20:17;18.65;;;7.30;;
67514;SDS011;60646;55.802;37.032;2024-01-27T05:22:44;13.75;;;6.10;;
67514;SDS011;60646;55.802;37.032;2024-01-27T05:25:10;13.30;;;5.75;;
67514;SDS011;60646;55.802;37.032;2024-01-27T05:27:39;17.15;;;6.85;;
67514;SDS011;60646;55.802;37.032;2024-01-27T05:30:06;13.80;;;6.07;;
67514;SDS011;60646;55.802;37.032;2024-01-27T05:32:32;14.57;;;5.18;;
67514;SDS011;60646;55.802;37.032;2024-01-27T05:34:58;15.48;;;5.20;;
67514;SDS011;60646;55.802;37.032;2024-01-27T05:37:24;9.00;;;4.85;;
67514;SDS011;60646;55.802;37.032;2024-01-27T05:39:49;12.38;;;5.22;;
67514;SDS011;60646;55.802;37.032;2024-01-27T05:42:15;12.60;;;5.47;;
67514;SDS011;60646;55.802;37.032;2024-01-27T05:44:41;17.10;;;7.03;;
67514;SDS011;60646;55.802;37.032;2024-01-27T05:47:07;31.90;;;9.23;;
67514;SDS011;60646;55.802;37.032;2024-01-27T05:49:33;22.23;;;8.00;;
67514;SDS011;60646;55.802;37.032;2024-01-27T05:51:59;19.58;;;7.53;;
67514;SDS011;60646;55.802;37.032;2024-01-27T05:54:24;14.30;;;5.85;;
67514;SDS011;60646;55.802;37.032;2024-01-27T05:56:50;13.05;;;5.60;;
67514;SDS011;60646;55.802;37.032;2024-01-27T05:59:16;21.10;;;7.78;;
67514;SDS011;60646;55.802;37.032;2024-01-27T06:01:42;15.52;;;8.07;;
67514;SDS011;60646;55.802;37.032;2024-01-27T06:04:10;16.20;;;6.68;;
67514;SDS011;60646;55.802;37.032;2024-01-27T06:06:38;15.40;;;6.47;;
67514;SDS011;60646;55.802;37.032;2024-01-27T06:09:05;10.98;;;5.93;;
67514;SDS011;60646;55.802;37.032;2024-01-27T06:11:31;16.83;;;6.47;;
67514;SDS011;60646;55.802;37.032;2024-01-27T06:13:57;13.50;;;5.80;;
67514;SDS011;60646;55.802;37.032;2024-01-27T06:16:23;14.70;;;5.95;;
67514;SDS011;60646;55.802;37.032;2024-01-27T06:18:49;13.43;;;5.53;;
67514;SDS011;60646;55.802;37.032;2024-01-27T06:21:15;15.30;;;5.97;;
67514;SDS011;60646;55.802;37.032;2024-01-27T06:23:41;12.20;;;5.28;;
67514;SDS011;60646;55.802;37.032;2024-01-27T06:26:07;10.32;;;5.25;;
67514;SDS011;60646;55.802;37.032;2024-01-27T06:28:34;11.82;;;5.47;;
67514;SDS011;60646;55.802;37.032;2024-01-27T06:31:01;10.02;;;5.07;;
67514;SDS011;60646;55.802;37.032;2024-01-27T06:33:27;10.95;;;5.15;;
67514;SDS011;60646;55.802;37.032;2024-01-27T06:35:54;11.65;;;5.28;;
67514;SDS011;60646;55.802;37.032;2024-01-27T06:38:19;11.43;;;4.90;;
67514;SDS011;60646;55.802;37.032;2024-01-27T06:40:45;11.88;;;5.55;;
67514;SDS011;60646;55.802;37.032;2024-01-27T06:43:12;12.90;;;5.47;;
67514;SDS011;60646;55.802;37.032;2024-01-27T06:45:38;10.73;;;5.40;;
67514;SDS011;60646;55.802;37.032;2024-01-27T06:48:05;12.20;;;5.80;;
67514;SDS011;60646;55.802;37.032;2024-01-27T06:50:32;11.32;;;5.20;;
67514;SDS011;60646;55.802;37.032;2024-01-27T06:52:58;11.57;;;4.90;;
67514;SDS011;60646;55.802;37.032;2024-01-27T06:55:24;10.43;;;5.35;;
67514;SDS011;60646;55.802;37.032;2024-01-27T06:57:50;8.23;;;4.75;;
67514;SDS011;60646;55.802;37.032;2024-01-27T07:00:16;11.82;;;5.22;;
67514;SDS011;60646;55.802;37.032;2024-01-27T07:02:43;13.27;;;5.63;;
67514;SDS011;60646;55.802;37.032;2024-01-27T07:05:09;11.98;;;5.30;;
67514;SDS011;60646;55.802;37.032;2024-01-27T07:07:37;9.15;;;4.53;;
67514;SDS011;60646;55.802;37.032;2024-01-27T07:10:03;13.02;;;5.70;;
67514;SDS011;60646;55.802;37.032;2024-01-27T07:12:29;11.75;;;5.22;;
67514;SDS011;60646;55.802;37.032;2024-01-27T07:14:55;11.45;;;4.88;;
67514;SDS011;60646;55.802;37.032;2024-01-27T07:17:21;13.70;;;5.85;;
67514;SDS011;60646;55.802;37.032;2024-01-27T07:19:47;11.10;;;5.40;;
67514;SDS011;60646;55.802;37.032;2024-01-27T07:22:13;12.77;;;5.63;;
67514;SDS011;60646;55.802;37.032;2024-01-27T07:24:39;23.52;;;6.38;;
67514;SDS011;60646;55.802;37.032;2024-01-27T07:27:05;13.73;;;5.75;;
67514;SDS011;60646;55.802;37.032;2024-01-27T07:29:31;14.18;;;6.05;;
67514;SDS011;60646;55.802;37.032;2024-01-27T07:31:57;12.23;;;5.45;;
67514;SDS011;60646;55.802;37.032;2024-01-27T07:34:23;11.55;;;5.60;;
67514;SDS011;60646;55.802;37.032;2024-01-27T07:36:50;11.75;;;5.72;;
67514;SDS011;60646;55.802;37.032;2024-01-27T07:39:18;9.80;;;4.88;;
67514;SDS011;60646;55.802;37.032;2024-01-27T07:46:40;10.35;;;5.07;;
67514;SDS011;60646;55.802;37.032;2024-01-27T07:49:09;11.88;;;5.25;;
67514;SDS011;60646;55.802;37.032;2024-01-27T07:51:38;10.90;;;5.20;;
67514;SDS011;60646;55.802;37.032;2024-01-27T07:54:04;8.82;;;5.40;;
67514;SDS011;60646;55.802;37.032;2024-01-27T07:56:33;10.57;;;5.20;;
67514;SDS011;60646;55.802;37.032;2024-01-27T07:59:44;12.15;;;4.95;;
67514;SDS011;60646;55.802;37.032;2024-01-27T08:02:10;11.00;;;5.30;;
67514;SDS011;60646;55.802;37.032;2024-01-27T08:04:37;10.88;;;4.70;;
67514;SDS011;60646;55.802;37.032;2024-01-27T08:07:04;10.13;;;5.07;;
67514;SDS011;60646;55.802;37.032;2024-01-27T08:09:35;11.32;;;4.78;;
67514;SDS011;60646;55.802;37.032;2024-01-27T08:12:03;9.23;;;4.88;;
67514;SDS011;60646;55.802;37.032;2024-01-27T08:14:29;13.65;;;5.90;;
67514;SDS011;60646;55.802;37.032;2024-01-27T08:16:58;12.45;;;5.43;;
67514;SDS011;60646;55.802;37.032;2024-01-27T08:19:24;14.00;;;5.50;;
67514;SDS011;60646;55.802;37.032;2024-01-27T08:21:50;12.38;;;4.65;;
67514;SDS011;60646;55.802;37.032;2024-01-27T08:24:16;10.60;;;5.03;;
67514;SDS011;60646;55.802;37.032;2024-01-27T08:26:42;10.93;;;4.80;;
67514;SDS011;60646;55.802;37.032;2024-01-27T08:29:08;13.02;;;5.55;;
67514;SDS011;60646;55.802;37.032;2024-01-27T08:31:37;11.00;;;4.80;;
67514;SDS011;60646;55.802;37.032;2024-01-27T08:34:04;11.05;;;5.65;;
67514;SDS011;60646;55.802;37.032;2024-01-27T08:36:30;13.55;;;5.60;;
67514;SDS011;60646;55.802;37.032;2024-01-27T08:38:56;11.95;;;5.00;;
67514;SDS011;60646;55.802;37.032;2024-01-27T08:41:22;13.52;;;5.75;;
67514;SDS011;60646;55.802;37.032;2024-01-27T08:43:48;14.57;;;5.10;;
67514;SDS011;60646;55.802;37.032;2024-01-27T08:46:14;15.20;;;5.57;;
67514;SDS011;60646;55.802;37.032;2024-01-27T08:48:40;10.57;;;5.60;;
67514;SDS011;60646;55.802;37.032;2024-01-27T08:51:10;10.23;;;4.88;;
67514;SDS011;60646;55.802;37.032;2024-01-27T08:53:38;11.05;;;5.47;;
67514;SDS011;60646;55.802;37.032;2024-01-27T08:56:04;11.68;;;5.18;;
67514;SDS011;60646;55.802;37.032;2024-01-27T08:58:31;10.50;;;4.55;;
67514;SDS011;60646;55.802;37.032;2024-01-27T09:00:57;12.23;;;5.60;;
67514;SDS011;60646;55.802;37.032;2024-01-27T09:03:22;17.92;;;7.78;;
67514;SDS011;60646;55.802;37.032;2024-01-27T09:05:48;16.73;;;6.95;;
67514;SDS011;60646;55.802;37.032;2024-01-27T09:08:15;14.07;;;6.75;;
67514;SDS011;60646;55.802;37.032;2024-01-27T09:10:42;12.93;;;5.68;;
67514;SDS011;60646;55.802;37.032;2024-01-27T09:13:08;16.73;;;6.40;;
67514;SDS011;60646;55.802;37.032;2024-01-27T09:15:52;13.10;;;5.57;;
67514;SDS011;60646;55.802;37.032;2024-01-27T09:18:18;13.63;;;6.32;;
67514;SDS011;60646;55.802;37.032;2024-01-27T09:20:44;10.07;;;5.85;;
67514;SDS011;60646;55.802;37.032;2024-01-27T09:23:10;14.10;;;6.35;;
67514;SDS011;60646;55.802;37.032;2024-01-27T09:25:37;13.23;;;6.15;;
67514;SDS011;60646;55.802;37.032;2024-01-27T09:28:03;12.00;;;6.00;;
67514;SDS011;60646;55.802;37.032;2024-01-27T09:30:29;12.73;;;6.47;;
67514;SDS011;60646;55.802;37.032;2024-01-27T09:32:55;14.07;;;6.70;;
67514;SDS011;60646;55.802;37.032;2024-01-27T09:35:21;14.05;;;6.22;;
67514;SDS011;60646;55.802;37.032;2024-01-27T09:37:47;12.77;;;5.10;;
67514;SDS011;60646;55.802;37.032;2024-01-27T09:40:12;10.75;;;5.97;;
67514;SDS011;60646;55.802;37.032;2024-01-27T09:42:39;11.50;;;5.80;;
67514;SDS011;60646;55.802;37.032;2024-01-27T09:45:08;12.70;;;5.35;;
67514;SDS011;60646;55.802;37.032;2024-01-27T09:47:35;9.30;;;5.10;;
67514;SDS011;60646;55.802;37.032;2024-01-27T09:50:02;12.95;;;5.80;;
67514;SDS011;60646;55.802;37.032;2024-01-27T09:52:29;11.77;;;5.10;;
67514;SDS011;60646;55.802;37.032;2024-01-27T09:54:55;9.70;;;5.13;;
67514;SDS011;60646;55.802;37.032;2024-01-27T09:57:21;11.10;;;5.82;;
67514;SDS011;60646;55.802;37.032;2024-01-27T09:59:47;14.10;;;6.53;;
67514;SDS011;60646;55.802;37.032;2024-01-27T10:02:15;11.38;;;5.68;;
67514;SDS011;60646;55.802;37.032;2024-01-27T10:04:44;15.50;;;6.55;;
67514;SDS011;60646;55.802;37.032;2024-01-27T10:07:14;12.80;;;6.28;;
67514;SDS011;60646;55.802;37.032;2024-01-27T10:09:39;18.75;;;7.20;;
67514;SDS011;60646;55.802;37.032;2024-01-27T10:12:06;15.30;;;6.82;;
67514;SDS011;60646;55.802;37.032;2024-01-27T10:14:39;16.23;;;6.90;;
67514;SDS011;60646;55.802;37.032;2024-01-27T10:17:07;17.52;;;7.25;;
67514;SDS011;60646;55.802;37.032;2024-01-27T10:19:34;14.85;;;6.75;;
67514;SDS011;60646;55.802;37.032;2024-01-27T10:22:00;11.18;;;5.03;;
67514;SDS011;60646;55.802;37.032;2024-01-27T10:24:33;11.52;;;5.15;;
67514;SDS011;60646;55.802;37.032;2024-01-27T10:27:01;11.05;;;5.15;;
67514;SDS011;60646;55.802;37.032;2024-01-27T10:29:29;10.50;;;5.25;;
67514;SDS011;60646;55.802;37.032;2024-01-27T10:31:55;12.05;;;5.72;;
67514;SDS011;60646;55.802;37.032;2024-01-27T10:34:22;10.85;;;4.80;;
67514;SDS011;60646;55.802;37.032;2024-01-27T10:36:48;10.30;;;4.60;;
67514;SDS011;60646;55.802;37.032;2024-01-27T10:39:20;9.60;;;4.40;;
67514;SDS011;60646;55.802;37.032;2024-01-27T10:41:48;10.25;;;4.25;;
67514;SDS011;60646;55.802;37.032;2024-01-27T10:44:15;11.50;;;4.97;;
67514;SDS011;60646;55.802;37.032;2024-01-27T10:46:43;9.57;;;4.75;;
67514;SDS011;60646;55.802;37.032;2024-01-27T10:49:15;11.85;;;5.00;;
67514;SDS011;60646;55.802;37.032;2024-01-27T10:51:46;11.52;;;4.80;;
67514;SDS011;60646;55.802;37.032;2024-01-27T10:54:25;10.52;;;4.43;;
67514;SDS011;60646;55.802;37.032;2024-01-27T10:56:58;10.90;;;4.40;;
67514;SDS011;60646;55.802;37.032;2024-01-27T10:59:28;8.93;;;4.60;;
67514;SDS011;60646;55.802;37.032;2024-01-27T11:01:56;10.05;;;4.57;;
67514;SDS011;60646;55.802;37.032;2024-01-27T11:04:22;11.10;;;5.25;;
67514;SDS011;60646;55.802;37.032;2024-01-27T11:06:49;10.98;;;4.53;;
67514;SDS011;60646;55.802;37.032;2024-01-27T11:09:15;10.02;;;4.75;;
67514;SDS011;60646;55.802;37.032;2024-01-27T11:11:42;9.02;;;4.45;;
67514;SDS011;60646;55.802;37.032;2024-01-27T11:14:09;8.32;;;4.25;;
67514;SDS011;60646;55.802;37.032;2024-01-27T11:16:36;8.88;;;4.53;;
67514;SDS011;60646;55.802;37.032;2024-01-27T11:19:10;11.10;;;5.00;;
67514;SDS011;60646;55.802;37.032;2024-01-27T11:21:37;11.63;;;4.90;;
67514;SDS011;60646;55.802;37.032;2024-01-27T11:24:23;11.38;;;5.28;;
67514;SDS011;60646;55.802;37.032;2024-01-27T11:26:59;10.50;;;4.88;;
67514;SDS011;60646;55.802;37.032;2024-01-27T11:29:28;9.70;;;4.70;;
67514;SDS011;60646;55.802;37.032;2024-01-27T11:31:55;10.40;;;5.05;;
67514;SDS011;60646;55.802;37.032;2024-01-27T11:34:24;11.07;;;5.15;;
67514;SDS011;60646;55.802;37.032;2024-01-27T11:36:50;10.35;;;5.43;;
67514;SDS011;60646;55.802;37.032;2024-01-27T11:39:26;12.52;;;5.43;;
67514;SDS011;60646;55.802;37.032;2024-01-27T11:41:52;10.80;;;5.35;;
67514;SDS011;60646;55.802;37.032;2024-01-27T11:44:19;10.95;;;5.05;;
67514;SDS011;60646;55.802;37.032;2024-01-27T11:46:45;13.88;;;6.43;;
67514;SDS011;60646;55.802;37.032;2024-01-27T11:49:14;12.52;;;5.03;;
67514;SDS011;60646;55.802;37.032;2024-01-27T11:51:41;13.98;;;5.43;;
67514;SDS011;60646;55.802;37.032;2024-01-27T11:54:07;11.00;;;5.00;;
67514;SDS011;60646;55.802;37.032;2024-01-27T11:56:33;12.70;;;5.95;;
67514;SDS011;60646;55.802;37.032;2024-01-27T11:58:59;11.20;;;5.57;;
67514;SDS011;60646;55.802;37.032;2024-01-27T12:01:25;11.63;;;5.47;;
67514;SDS011;60646;55.802;37.032;2024-01-27T12:03:51;12.63;;;5.22;;
67514;SDS011;60646;55.802;37.032;2024-01-27T12:06:17;12.10;;;5.53;;
67514;SDS011;60646;55.802;37.032;2024-01-27T12:08:44;11.07;;;5.30;;
67514;SDS011;60646;55.802;37.032;2024-01-27T12:11:16;12.32;;;4.82;;
67514;SDS011;60646;55.802;37.032;2024-01-27T12:13:42;9.60;;;4.60;;
67514;SDS011;60646;55.802;37.032;2024-01-27T12:16:13;11.07;;;5.15;;
67514;SDS011;60646;55.802;37.032;2024-01-27T12:18:40;12.05;;;5.32;;
67514;SDS011;60646;55.802;37.032;2024-01-27T12:21:07;10.32;;;5.00;;
67514;SDS011;60646;55.802;37.032;2024-01-27T12:30:19;9.55;;;5.30;;
67514;SDS011;60646;55.802;37.032;2024-01-27T12:32:47;12.20;;;5.50;;
67514;SDS011;60646;55.802;37.032;2024-01-27T12:35:13;10.48;;;4.60;;
67514;SDS011;60646;55.802;37.032;2024-01-27T12:37:39;9.90;;;4.68;;
67514;SDS011;60646;55.802;37.032;2024-01-27T12:40:16;9.90;;;4.80;;
67514;SDS011;60646;55.802;37.032;2024-01-27T12:42:44;11.55;;;5.30;;
67514;SDS011;60646;55.802;37.032;2024-01-27T12:45:10;11.95;;;5.20;;
67514;SDS011;60646;55.802;37.032;2024-01-27T12:47:36;11.35;;;4.60;;
67514;SDS011;60646;55.802;37.032;2024-01-27T12:50:02;8.65;;;4.45;;
67514;SDS011;60646;55.802;37.032;2024-01-27T12:52:30;12.95;;;5.82;;
67514;SDS011;60646;55.802;37.032;2024-01-27T12:54:56;9.23;;;4.90;;
67514;SDS011;60646;55.802;37.032;2024-01-27T12:57:22;10.50;;;4.88;;
67514;SDS011;60646;55.802;37.032;2024-01-27T12:59:48;11.50;;;5.20;;
67514;SDS011;60646;55.802;37.032;2024-01-27T13:02:14;10.20;;;4.78;;
67514;SDS011;60646;55.802;37.032;2024-01-27T13:04:41;10.23;;;5.45;;
67514;SDS011;60646;55.802;37.032;2024-01-27T13:07:08;12.82;;;5.75;;
67514;SDS011;60646;55.802;37.032;2024-01-27T13:09:34;14.73;;;5.10;;
67514;SDS011;60646;55.802;37.032;2024-01-27T13:12:01;14.23;;;6.05;;
67514;SDS011;60646;55.802;37.032;2024-01-27T13:14:27;19.70;;;7.38;;
67514;SDS011;60646;55.802;37.032;2024-01-27T13:16:53;19.20;;;7.68;;
67514;SDS011;60646;55.802;37.032;2024-01-27T13:19:20;16.13;;;7.13;;
67514;SDS011;60646;55.802;37.032;2024-01-27T13:21:46;13.23;;;5.82;;
67514;SDS011;60646;55.802;37.032;2024-01-27T13:24:13;13.18;;;6.20;;
67514;SDS011;60646;55.802;37.032;2024-01-27T13:26:39;14.93;;;7.35;;
67514;SDS011;60646;55.802;37.032;2024-01-27T13:29:05;12.00;;;5.88;;
67514;SDS011;60646;55.802;37.032;2024-01-27T13:31:31;11.60;;;5.43;;
67514;SDS011;60646;55.802;37.032;2024-01-27T13:33:57;10.30;;;4.78;;
67514;SDS011;60646;55.802;37.032;2024-01-27T13:36:27;11.60;;;4.75;;
67514;SDS011;60646;55.802;37.032;2024-01-27T13:38:53;11.25;;;5.13;;
67514;SDS011;60646;55.802;37.032;2024-01-27T13:41:19;11.02;;;4.97;;
67514;SDS011;60646;55.802;37.032;2024-01-27T13:43:45;10.27;;;4.75;;
67514;SDS011;60646;55.802;37.032;2024-01-27T13:46:11;10.88;;;4.30;;
67514;SDS011;60646;55.802;37.032;2024-01-27T13:48:37;10.07;;;4.60;;
67514;SDS011;60646;55.802;37.032;2024-01-27T13:51:04;11.48;;;4.35;;
67514;SDS011;60646;55.802;37.032;2024-01-27T13:53:30;11.63;;;4.72;;
67514;SDS011;60646;55.802;37.032;2024-01-27T13:55:56;10.40;;;4.45;;
67514;SDS011;60646;55.802;37.032;2024-01-27T13:58:22;9.80;;;4.70;;
67514;SDS011;60646;55.802;37.032;2024-01-27T14:00:48;8.15;;;4.10;;
67514;SDS011;60646;55.802;37.032;2024-01-27T14:03:14;10.35;;;4.60;;
67514;SDS011;60646;55.802;37.032;2024-01-27T14:05:39;10.93;;;4.60;;
67514;SDS011;60646;55.802;37.032;2024-01-27T14:08:07;11.25;;;5.53;;
67514;SDS011;60646;55.802;37.032;2024-01-27T14:10:35;8.70;;;4.43;;
67514;SDS011;60646;55.802;37.032;2024-01-27T14:13:01;13.02;;;4.70;;
67514;SDS011;60646;55.802;37.032;2024-01-27T14:15:30;15.55;;;5.45;;
67514;SDS011;60646;55.802;37.032;2024-01-27T14:17:56;9.90;;;4.55;;
67514;SDS011;60646;55.802;37.032;2024-01-27T14:20:22;14.15;;;5.40;;
67514;SDS011;60646;55.802;37.032;2024-01-27T14:22:48;10.52;;;4.90;;
67514;SDS011;60646;55.802;37.032;2024-01-27T14:25:15;8.93;;;4.15;;
67514;SDS011;60646;55.802;37.032;2024-01-27T14:27:41;10.48;;;4.68;;
67514;SDS011;60646;55.802;37.032;2024-01-27T14:30:07;9.77;;;4.47;;
67514;SDS011;60646;55.802;37.032;2024-01-27T14:32:36;10.38;;;4.70;;
67514;SDS011;60646;55.802;37.032;2024-01-27T14:35:02;10.00;;;4.68;;